Terminal Aerodrome Forecast
Issued by NWS

Home | Current Version | Previous Version | Text Only | Print | Product List | Glossary On
Versions: 1 2 3 4 5 6 7 8 9 10 11 12
000
FTUS46 KEKA 252300 RRA
TAFUKI
TAF
KUKI 252345Z 2600/2624 28012G18KT P6SM SKC
     FM260100 32007KT P6SM SKC
     FM260400 00000KT P6SM SKC
     FM261900 11006KT P6SM SKC
     FM262200 19008KT P6SM SKC=

USA.gov is the U.S. government's official web portal to all federal, state and local government web resources and services.